METAR Data
IDs: Format: Raw Decoded Include TAF

Data at: 2218 UTC 01 Dec 2021

EPGD 012200Z 19010KT 9999 OVC005 04/03 Q0981